Time;durP1;ratioP1;P1;durP2;ratioP2;P2;SDS_P1;SDS_P2;PMS_P1;PMS_P2;Temp;Humidity;BMP_temperature;BMP_pressure;BME280_temperature;BME280_humidity;BME280_pressure;Samples;Min_cycle;Max_cycle;Signal;HPM_P1;HPM_P2
2022/12/08 00:01:27;;;;;;;;;34.75;31.75;;;;;11.41;81.66;99670.38;5057031;28;45511;-85
2022/12/08 00:03:54;;;;;;;;;33.75;29.50;;;;;11.43;81.12;99666.03;5056716;28;45523;-85
2022/12/08 00:09:28;;;;;;;;;28.75;24.75;;;;;11.45;80.89;99663.44;5054975;28;45406;-84
2022/12/08 00:11:59;;;;;;;;;29.00;24.25;;;;;11.40;80.72;99646.81;5057010;28;45475;-77
2022/12/08 00:14:31;;;;;;;;;28.50;27.00;;;;;11.47;80.62;99651.25;5056782;28;46260;-83
2022/12/08 00:16:58;;;;;;;;;27.00;26.50;;;;;11.46;80.23;99645.16;5054418;28;45588;-78
2022/12/08 00:19:25;;;;;;;;;21.50;20.50;;;;;11.46;80.37;99637.31;5056969;28;45466;-85
2022/12/08 00:21:51;;;;;;;;;25.75;24.00;;;;;11.46;79.70;99639.03;5056835;28;45505;-82
2022/12/08 00:24:17;;;;;;;;;30.75;24.00;;;;;11.43;80.20;99646.84;5056808;28;46103;-83
2022/12/08 00:26:43;;;;;;;;;28.75;23.50;;;;;11.40;80.31;99636.34;5056531;28;45413;-79
2022/12/08 00:29:09;;;;;;;;;29.75;27.00;;;;;11.40;80.08;99629.41;5056309;28;45488;-84
2022/12/08 00:31:35;;;;;;;;;31.00;27.75;;;;;11.40;80.00;99628.50;5056696;28;45369;-84
2022/12/08 00:34:00;;;;;;;;;24.50;21.75;;;;;11.38;80.09;99622.38;5055239;28;46324;-84
2022/12/08 00:36:27;;;;;;;;;30.50;25.25;;;;;11.12;80.03;99579.41;5056571;28;45847;-84
2022/12/08 00:38:52;;;;;;;;;26.00;24.75;;;;;11.34;80.14;99622.34;5056531;28;45470;-84
2022/12/08 00:44:06;;;;;;;;;25.25;22.50;;;;;11.33;79.77;99615.34;5055642;28;45432;-84
2022/12/08 00:46:32;;;;;;;;;24.25;20.50;;;;;11.31;80.21;99611.84;5056277;28;45420;-76
2022/12/08 00:48:57;;;;;;;;;18.25;18.25;;;;;11.30;80.11;99607.50;5056544;28;45295;-85
2022/12/08 00:51:23;;;;;;;;;18.25;17.75;;;;;11.30;79.95;99601.38;5057167;28;45389;-80
2022/12/08 00:53:48;;;;;;;;;16.00;14.50;;;;;11.09;80.07;99566.28;5056095;28;45358;-84
2022/12/08 00:56:14;;;;;;;;;11.50;9.00;;;;;11.12;79.59;99573.25;5046390;28;45587;-70
2022/12/08 00:58:39;;;;;;;;;16.00;14.75;;;;;11.27;80.06;99594.38;5056190;28;45347;-66
2022/12/08 01:01:13;;;;;;;;;14.75;13.75;;;;;11.07;79.88;99560.16;5056396;28;45316;-66
2022/12/08 01:03:39;;;;;;;;;14.75;13.25;;;;;11.23;79.67;99589.97;5053610;28;45499;-67
2022/12/08 01:06:06;;;;;;;;;13.75;13.25;;;;;11.23;79.88;99586.50;5055942;28;45563;-83
2022/12/08 01:08:32;;;;;;;;;14.75;13.50;;;;;11.23;80.16;99586.50;5056268;28;45492;-74
2022/12/08 01:11:06;;;;;;;;;19.50;16.50;;;;;11.14;79.90;99577.69;5056491;28;46248;-86
2022/12/08 01:13:32;;;;;;;;;21.50;20.00;;;;;10.89;80.05;99534.66;5054750;28;45448;-75
2022/12/08 01:15:57;;;;;;;;;21.00;18.75;;;;;10.92;80.40;99565.19;5056594;28;45469;-85
2022/12/08 01:18:23;;;;;;;;;22.25;21.00;;;;;10.88;81.31;99556.44;5056081;28;45387;-84
2022/12/08 01:20:49;;;;;;;;;20.00;19.00;;;;;10.81;81.82;99557.22;5056002;28;45430;-72
2022/12/08 01:23:14;;;;;;;;;19.25;19.00;;;;;10.82;81.63;99558.09;5055684;28;45323;-76
2022/12/08 01:25:40;;;;;;;;;22.00;20.25;;;;;10.84;81.69;99548.53;5055530;28;45334;-82
2022/12/08 01:28:05;;;;;;;;;25.50;23.25;;;;;10.86;81.06;99534.66;5056123;28;45624;-85
2022/12/08 01:30:31;;;;;;;;;24.50;20.75;;;;;10.71;81.13;99508.31;5056132;28;45568;-82
2022/12/08 01:32:56;;;;;;;;;19.25;18.75;;;;;10.91;81.48;99546.03;5055590;28;45991;-83
2022/12/08 01:35:22;;;;;;;;;27.00;22.00;;;;;10.95;81.51;99537.34;5055511;28;45550;-82
2022/12/08 01:37:49;;;;;;;;;21.50;19.75;;;;;10.95;81.33;99526.91;5056028;28;45578;-82
2022/12/08 01:40:15;;;;;;;;;25.00;20.00;;;;;10.98;81.33;99528.66;5057570;28;45358;-84
2022/12/08 01:42:41;;;;;;;;;22.00;21.00;;;;;10.99;81.11;99519.13;5057010;28;45287;-85
2022/12/08 01:45:16;;;;;;;;;25.00;20.25;;;;;10.99;81.14;99522.59;5057011;28;45389;-84
2022/12/08 01:47:46;;;;;;;;;23.25;22.50;;;;;10.97;80.93;99533.91;5057288;28;45421;-85
2022/12/08 01:50:14;;;;;;;;;23.50;21.50;;;;;10.92;81.31;99531.22;5057311;28;45456;-84
2022/12/08 01:52:45;;;;;;;;;20.50;18.25;;;;;10.92;80.97;99526.88;5057121;28;46267;-85
2022/12/08 01:55:25;;;;;;;;;19.50;16.25;;;;;10.82;81.10;99501.47;5057499;28;46392;-85
2022/12/08 01:57:59;;;;;;;;;20.50;18.00;;;;;10.95;80.85;99526.03;5059668;28;45552;-83
2022/12/08 02:00:24;;;;;;;;;20.25;17.75;;;;;10.91;80.98;99521.63;5058460;28;45273;-69
2022/12/08 02:02:59;;;;;;;;;17.25;14.00;;;;;10.91;81.03;99519.03;5059627;28;45933;-85
2022/12/08 02:05:29;;;;;;;;;12.50;12.00;;;;;10.79;81.34;99488.41;5057922;28;45455;-86
2022/12/08 02:07:56;;;;;;;;;15.00;14.75;;;;;10.94;80.95;99517.31;5057659;28;45512;-85
2022/12/08 02:10:23;;;;;;;;;15.75;13.00;;;;;10.96;81.08;99509.47;5058019;28;45204;-82
2022/12/08 02:12:53;;;;;;;;;13.00;12.75;;;;;10.98;80.85;99501.66;5056985;28;45723;-85
2022/12/08 02:15:28;;;;;;;;;16.75;16.25;;;;;10.99;80.57;99496.47;5056835;28;45474;-78
2022/12/08 02:18:31;;;;;;;;;15.50;14.75;;;;;10.99;80.45;99493.00;5057017;28;45429;-86
2022/12/08 02:21:24;;;;;;;;;15.75;14.75;;;;;10.94;80.73;99491.19;5056878;28;45535;-84
2022/12/08 02:24:03;;;;;;;;;17.25;13.25;;;;;10.64;80.96;99447.28;5057248;28;48032;-85
2022/12/08 02:27:03;;;;;;;;;14.50;12.50;;;;;10.93;80.65;99488.56;5059909;28;45351;-80
2022/12/08 02:30:06;;;;;;;;;15.75;13.00;;;;;10.93;80.66;99478.97;5060263;28;45290;-85
2022/12/08 02:32:54;;;;;;;;;16.75;15.50;;;;;10.78;80.79;99478.78;5061247;28;45351;-77
2022/12/08 02:35:20;;;;;;;;;19.75;17.00;;;;;10.75;80.94;99465.72;5059865;28;46124;-85
2022/12/08 02:38:26;;;;;;;;;17.00;15.00;;;;;10.73;81.20;99470.91;5059763;28;45562;-85
2022/12/08 02:40:56;;;;;;;;;12.50;12.00;;;;;10.74;81.02;99458.72;5060318;28;45350;-85
2022/12/08 02:43:32;;;;;;;;;13.00;12.25;;;;;10.73;81.44;99451.75;5060766;28;45482;-80
2022/12/08 02:46:07;;;;;;;;;16.00;13.50;;;;;10.80;81.22;99456.19;5059941;28;46247;-82
2022/12/08 02:48:33;;;;;;;;;16.50;13.50;;;;;10.82;81.14;99451.84;5060898;28;45545;-84
2022/12/08 02:50:58;;;;;;;;;18.75;15.00;;;;;10.85;80.98;99446.66;5060244;28;45471;-85
2022/12/08 02:53:29;;;;;;;;;13.75;13.75;;;;;10.88;80.77;99440.59;5060445;28;45227;-82
2022/12/08 02:56:06;;;;;;;;;11.50;11.00;;;;;10.89;80.88;99439.75;5059948;28;45385;-84
2022/12/08 02:58:34;;;;;;;;;13.00;12.25;;;;;10.91;80.79;99440.63;5059943;28;45255;-85
2022/12/08 03:01:24;;;;;;;;;13.50;12.00;;;;;10.86;80.47;99432.75;5058307;28;45329;-84
2022/12/08 03:04:38;;;;;;;;;14.00;13.00;;;;;10.90;80.56;99434.53;5060299;28;45325;-85
2022/12/08 03:07:05;;;;;;;;;13.00;13.00;;;;;10.90;80.13;99421.47;5057882;28;45960;-67
2022/12/08 03:09:41;;;;;;;;;12.00;11.50;;;;;10.90;80.14;99423.19;5059455;28;45556;-67
2022/12/08 03:12:23;;;;;;;;;17.25;12.50;;;;;10.90;80.35;99425.81;5060033;28;45508;-71
2022/12/08 03:14:59;;;;;;;;;10.00;10.00;;;;;10.89;80.11;99421.44;5059882;28;45347;-72
2022/12/08 03:17:28;;;;;;;;;11.00;8.75;;;;;10.85;80.24;99407.47;5059299;28;45498;-69
2022/12/08 03:19:56;;;;;;;;;11.25;10.50;;;;;10.89;80.21;99414.47;5059236;28;45479;-67
2022/12/08 03:22:24;;;;;;;;;12.00;10.75;;;;;10.89;80.34;99409.25;5059596;28;45455;-85
2022/12/08 03:24:50;;;;;;;;;13.50;12.25;;;;;10.84;80.38;99408.34;5059489;28;45316;-85
2022/12/08 03:27:23;;;;;;;;;11.25;10.00;;;;;10.79;80.39;99407.41;5059215;28;45429;-85
2022/12/08 03:29:52;;;;;;;;;11.50;10.50;;;;;10.80;80.61;99395.22;5059362;28;45784;-85
2022/12/08 03:32:56;;;;;;;;;14.50;13.00;;;;;10.77;80.68;99395.22;5059387;28;45428;-85
2022/12/08 03:35:34;;;;;;;;;18.25;17.50;;;;;10.60;80.24;99368.88;5057603;28;45367;-85
2022/12/08 03:38:06;;;;;;;;;19.50;18.75;;;;;10.71;81.06;99382.94;5059020;28;45246;-68
2022/12/08 03:40:31;;;;;;;;;18.00;15.00;;;;;10.69;80.63;99382.94;5058992;28;45475;-84
2022/12/08 03:42:57;;;;;;;;;20.00;19.00;;;;;10.68;80.97;99372.44;5059067;28;45528;-83
2022/12/08 03:45:22;;;;;;;;;17.25;14.00;;;;;10.65;80.64;99359.38;5059231;28;45514;-83
2022/12/08 03:47:48;;;;;;;;;12.25;11.50;;;;;10.54;81.15;99362.75;5059072;28;45413;-77
2022/12/08 03:50:13;;;;;;;;;10.75;10.00;;;;;10.48;81.81;99352.22;5057850;28;45465;-84
2022/12/08 03:52:39;;;;;;;;;10.00;9.00;;;;;10.26;81.99;99324.97;5059370;28;45388;-84
2022/12/08 03:55:05;;;;;;;;;9.00;7.75;;;;;10.48;81.85;99343.50;5059387;28;45231;-84
2022/12/08 03:57:31;;;;;;;;;10.00;10.00;;;;;10.37;81.78;99319.03;5057702;28;46761;-85
2022/12/08 03:59:56;;;;;;;;;12.00;11.00;;;;;10.55;81.68;99343.59;5058630;28;45350;-82
2022/12/08 04:02:22;;;;;;;;;15.25;11.75;;;;;10.43;81.55;99322.59;5059109;28;45587;-84
2022/12/08 04:04:47;;;;;;;;;16.75;14.25;;;;;10.54;81.23;99330.53;5058986;28;45487;-83
2022/12/08 04:07:13;;;;;;;;;12.25;12.25;;;;;10.35;81.41;99311.19;5058832;28;45240;-84
2022/12/08 04:09:40;;;;;;;;;10.50;10.50;;;;;10.54;81.23;99339.25;5059156;28;45304;-84
2022/12/08 04:12:06;;;;;;;;;11.75;11.00;;;;;10.58;81.32;99340.13;5058789;28;45300;-85
2022/12/08 04:14:32;;;;;;;;;8.50;8.25;;;;;10.55;81.20;99338.38;5058785;28;45405;-84
2022/12/08 04:16:57;;;;;;;;;13.00;11.75;;;;;10.45;81.03;99313.03;5058694;28;45536;-84
2022/12/08 04:19:23;;;;;;;;;12.25;9.75;;;;;10.54;81.20;99320.97;5059574;28;45239;-84
2022/12/08 04:21:48;;;;;;;;;11.50;10.75;;;;;10.58;81.34;99316.63;5059080;28;45498;-84
2022/12/08 04:24:14;;;;;;;;;11.25;11.00;;;;;10.58;81.16;99319.25;5059313;28;45234;-84
2022/12/08 04:26:39;;;;;;;;;12.50;11.50;;;;;10.35;81.01;99277.25;5058519;28;45445;-85
2022/12/08 04:29:05;;;;;;;;;10.75;10.00;;;;;10.60;80.76;99311.44;5058975;28;45246;-85
2022/12/08 04:31:30;;;;;;;;;11.50;11.00;;;;;10.55;80.83;99304.44;5059323;28;45429;-84
2022/12/08 04:33:56;;;;;;;;;10.75;10.75;;;;;10.52;80.74;99299.19;5059669;28;45331;-84
2022/12/08 04:36:22;;;;;;;;;10.00;9.75;;;;;10.53;80.87;99303.53;5060225;28;46195;-82
2022/12/08 04:38:47;;;;;;;;;11.25;11.25;;;;;10.41;81.20;99290.38;5060075;28;45305;-84
2022/12/08 04:41:13;;;;;;;;;13.25;13.25;;;;;10.49;80.98;99299.16;5061434;28;45503;-76
2022/12/08 04:43:40;;;;;;;;;14.00;12.75;;;;;10.51;80.79;99299.19;5061729;28;45544;-84
2022/12/08 04:46:07;;;;;;;;;8.50;6.75;;;;;10.49;81.06;99291.31;5060023;28;45419;-85
2022/12/08 04:48:33;;;;;;;;;11.50;11.25;;;;;10.50;80.96;99300.91;5060676;28;45310;-85
2022/12/08 04:50:58;;;;;;;;;11.00;11.00;;;;;10.52;81.14;99291.38;5062311;28;45370;-85
2022/12/08 04:53:25;;;;;;;;;12.00;12.00;;;;;10.50;81.01;99280.03;5059596;28;45396;-73
2022/12/08 04:55:51;;;;;;;;;12.00;11.25;;;;;10.36;80.99;99258.09;5061156;28;45472;-84
2022/12/08 04:58:18;;;;;;;;;11.25;10.75;;;;;10.47;80.93;99276.50;5060268;28;45390;-82
2022/12/08 05:00:46;;;;;;;;;11.50;10.25;;;;;10.34;81.14;99252.91;5059371;28;45522;-68
2022/12/08 05:03:12;;;;;;;;;13.00;11.00;;;;;10.47;81.06;99276.50;5060996;28;45242;-85
2022/12/08 05:05:38;;;;;;;;;12.00;11.25;;;;;10.45;81.00;99268.66;5059200;28;46053;-80
2022/12/08 05:08:04;;;;;;;;;16.00;11.00;;;;;10.46;80.64;99262.56;5058900;28;45639;-84
2022/12/08 05:10:30;;;;;;;;;9.00;9.00;;;;;10.43;80.75;99261.69;5059970;28;45242;-85
2022/12/08 05:12:57;;;;;;;;;10.25;10.00;;;;;10.42;80.81;99265.13;5058739;28;45349;-85
2022/12/08 05:15:23;;;;;;;;;9.75;9.00;;;;;10.08;80.78;99202.13;5060983;28;45453;-84
2022/12/08 05:17:49;;;;;;;;;15.75;11.00;;;;;10.35;81.17;99259.84;5059749;28;45301;-84
2022/12/08 05:20:14;;;;;;;;;11.75;11.50;;;;;10.33;81.40;99261.56;5059374;28;45331;-85
2022/12/08 05:22:40;;;;;;;;;11.25;10.25;;;;;10.26;80.98;99251.88;5060499;28;45557;-84
2022/12/08 05:25:06;;;;;;;;;9.50;9.50;;;;;10.05;80.96;99218.63;5059295;28;45629;-84
2022/12/08 05:27:31;;;;;;;;;8.75;8.75;;;;;10.19;81.32;99247.47;5059339;28;45379;-85
2022/12/08 05:29:57;;;;;;;;;8.75;8.50;;;;;10.12;81.56;99249.13;5059637;28;45315;-77
2022/12/08 05:32:22;;;;;;;;;9.25;9.25;;;;;9.96;81.53;99226.34;5058730;28;45495;-83
2022/12/08 05:34:48;;;;;;;;;8.50;8.00;;;;;9.99;82.22;99252.47;5059263;28;45327;-80
2022/12/08 05:37:14;;;;;;;;;10.00;10.00;;;;;9.90;82.28;99241.91;5059499;28;45406;-84
2022/12/08 05:39:39;;;;;;;;;10.50;10.25;;;;;9.86;82.17;99247.97;5057152;28;45361;-81
2022/12/08 05:42:05;;;;;;;;;29.75;28.00;;;;;9.81;82.13;99247.91;5059115;28;45500;-84
2022/12/08 05:44:31;;;;;;;;;43.25;38.50;;;;;9.77;82.20;99233.09;5059214;28;45381;-84
2022/12/08 05:46:56;;;;;;;;;32.50;30.75;;;;;9.76;82.36;99229.59;5057555;28;45394;-83
2022/12/08 05:49:22;;;;;;;;;29.25;27.00;;;;;9.74;82.20;99226.09;5056730;28;45327;-82
2022/12/08 05:51:47;;;;;;;;;18.50;16.75;;;;;9.69;82.17;99229.53;5057318;28;45407;-80
2022/12/08 05:54:13;;;;;;;;;11.00;10.75;;;;;9.64;82.44;99225.97;5057819;28;45378;-85
2022/12/08 05:56:38;;;;;;;;;9.00;8.00;;;;;9.59;82.93;99219.81;5059265;28;45477;-83
2022/12/08 05:59:06;;;;;;;;;11.50;10.00;;;;;9.33;82.72;99178.63;5066556;28;45363;-86
2022/12/08 06:01:31;;;;;;;;;143.25;123.00;;;;;9.39;82.60;99194.38;5064874;28;45488;-84
2022/12/08 06:03:59;;;;;;;;;8.25;8.00;;;;;9.52;83.64;99216.25;5064833;28;45495;-84
2022/12/08 06:06:26;;;;;;;;;19.75;19.25;;;;;9.53;84.18;99218.03;5063710;28;45420;-84
2022/12/08 06:08:51;;;;;;;;;22.75;21.00;;;;;9.56;83.96;99213.69;5063843;28;45450;-78
2022/12/08 06:11:24;;;;;;;;;97.25;79.00;;;;;9.60;83.76;99214.63;5064427;28;45478;-68
2022/12/08 06:13:50;;;;;;;;;40.25;35.00;;;;;9.64;83.70;99205.97;5063707;28;46136;-84
2022/12/08 06:16:16;;;;;;;;;25.25;22.00;;;;;9.68;83.14;99212.09;5063339;28;45252;-84
2022/12/08 06:18:43;;;;;;;;;20.75;15.75;;;;;9.51;82.92;99170.16;5064105;28;45388;-85
2022/12/08 06:21:10;;;;;;;;;44.00;37.00;;;;;9.78;82.57;99210.47;5063730;28;45484;-84
2022/12/08 06:23:36;;;;;;;;;58.25;44.50;;;;;9.75;82.21;99213.94;5064198;28;45634;-84
2022/12/08 06:26:08;;;;;;;;;90.50;76.00;;;;;9.64;82.31;99197.28;5064430;28;45459;-84
2022/12/08 06:28:34;;;;;;;;;77.50;60.50;;;;;9.74;82.20;99205.22;5065272;28;45493;-85
2022/12/08 06:31:06;;;;;;;;;16.50;13.00;;;;;9.73;82.11;99195.66;5064424;28;45337;-84
2022/12/08 06:33:31;;;;;;;;;10.75;10.50;;;;;9.68;81.95;99189.50;5063387;28;46015;-83
2022/12/08 06:35:58;;;;;;;;;24.50;23.25;;;;;9.75;82.37;99193.94;5063349;28;45522;-84
2022/12/08 06:38:23;;;;;;;;;25.75;24.00;;;;;9.76;82.09;99197.41;5064095;28;45366;-85
2022/12/08 06:40:55;;;;;;;;;14.50;13.25;;;;;9.75;81.88;99193.94;5065600;28;45403;-84
2022/12/08 06:43:21;;;;;;;;;11.25;10.50;;;;;9.77;81.70;99193.97;5064333;28;45381;-84
2022/12/08 06:45:47;;;;;;;;;15.25;14.00;;;;;9.73;81.79;99182.63;5066930;28;45169;-84
2022/12/08 06:48:12;;;;;;;;;10.00;9.00;;;;;9.78;81.78;99181.78;5065232;28;45375;-84
2022/12/08 06:50:38;;;;;;;;;29.75;27.00;;;;;9.75;81.36;99177.44;5066092;28;45404;-83
2022/12/08 06:53:03;;;;;;;;;98.67;87.67;;;;;9.68;81.24;99168.66;5063586;28;45458;-86
2022/12/08 06:55:29;;;;;;;;;10.00;8.75;;;;;9.70;81.49;99169.53;5063940;28;45382;-85
2022/12/08 06:57:55;;;;;;;;;6.25;5.25;;;;;9.74;80.84;99165.22;5064345;28;45518;-85
2022/12/08 07:00:21;;;;;;;;;33.25;30.50;;;;;9.64;80.66;99138.19;5065131;28;45577;-84
2022/12/08 07:02:46;;;;;;;;;26.25;25.50;;;;;9.87;80.34;99171.47;5063942;28;45386;-85
2022/12/08 07:05:12;;;;;;;;;33.50;31.25;;;;;9.91;80.33;99171.50;5063867;28;45295;-85
2022/12/08 07:07:37;;;;;;;;;35.00;33.75;;;;;9.96;79.92;99175.03;5063841;28;45467;-79
2022/12/08 07:10:03;;;;;;;;;2.50;2.25;;;;;10.03;79.13;99160.34;5062064;28;45477;-85
2022/12/08 07:12:29;;;;;;;;;36.25;31.75;;;;;10.13;78.57;99170.00;5059742;28;46136;-84
2022/12/08 07:14:54;;;;;;;;;6.50;5.75;;;;;10.12;78.40;99165.63;5059428;28;45477;-85
2022/12/08 07:17:20;;;;;;;;;3.00;3.00;;;;;10.15;78.48;99165.66;5060277;28;45221;-74
2022/12/08 07:19:46;;;;;;;;;16.50;15.75;;;;;10.18;78.14;99172.63;5065218;28;45156;-85
2022/12/08 07:22:11;;;;;;;;;10.00;10.00;;;;;10.19;78.00;99157.88;5059656;28;45920;-85
2022/12/08 07:24:37;;;;;;;;;70.00;54.75;;;;;9.94;77.30;99110.66;5059288;28;45484;-85
2022/12/08 07:27:02;;;;;;;;;26.25;26.00;;;;;9.95;78.05;99102.00;5059443;28;45490;-85
2022/12/08 07:29:28;;;;;;;;;24.25;23.00;;;;;10.16;78.17;99153.47;5059439;28;45257;-85
2022/12/08 07:31:53;;;;;;;;;5.00;4.00;;;;;10.21;78.00;99137.88;5057154;28;45458;-83
2022/12/08 07:34:19;;;;;;;;;6.00;5.75;;;;;10.26;77.98;99128.34;5058321;28;45564;-82
2022/12/08 07:36:44;;;;;;;;;12.00;11.25;;;;;10.33;77.35;99130.19;5058212;28;45289;-85
2022/12/08 07:39:10;;;;;;;;;2.00;2.00;;;;;10.40;77.11;99124.13;5058192;28;46087;-84
2022/12/08 07:41:36;;;;;;;;;9.00;8.00;;;;;10.43;77.08;99123.31;5058354;28;46103;-85
2022/12/08 07:44:01;;;;;;;;;5.50;4.25;;;;;10.47;76.27;99122.47;5056979;28;45452;-86
2022/12/08 07:46:27;;;;;;;;;11.00;10.00;;;;;10.52;76.89;99125.97;5058575;28;45578;-86
2022/12/08 07:48:54;;;;;;;;;8.00;6.00;;;;;10.57;76.19;99116.44;5058472;28;45402;-76
2022/12/08 07:51:20;;;;;;;;;11.50;11.00;;;;;10.62;76.56;99108.63;5058779;28;45960;-85
2022/12/08 07:53:47;;;;;;;;;10.25;8.75;;;;;10.63;76.34;99116.47;5058660;28;45379;-87
2022/12/08 07:56:13;;;;;;;;;14.50;13.25;;;;;10.70;76.10;99118.28;5059060;28;46187;-86
2022/12/08 07:58:39;;;;;;;;;12.50;11.00;;;;;10.74;75.99;99127.00;5058363;28;45405;-85
2022/12/08 08:01:05;;;;;;;;;9.50;9.00;;;;;10.65;76.25;99106.91;5058511;28;45341;-87
2022/12/08 08:03:32;;;;;;;;;10.25;10.00;;;;;10.81;76.44;99118.34;5059164;28;45410;-81
2022/12/08 08:06:04;;;;;;;;;8.00;8.00;;;;;10.83;76.16;99120.97;5058015;28;45512;-81
2022/12/08 08:08:30;;;;;;;;;6.00;5.00;;;;;10.89;75.92;99116.63;5057363;28;45650;-82
2022/12/08 08:10:55;;;;;;;;;3.00;2.25;;;;;10.83;75.29;99085.25;5057902;28;45367;-81
2022/12/08 08:13:21;;;;;;;;;2.00;2.00;;;;;11.07;74.52;99107.16;5058486;28;45309;-80
2022/12/08 08:15:47;;;;;;;;;4.00;3.00;;;;;11.16;74.02;99099.38;5058812;28;45842;-80
2022/12/08 08:18:12;;;;;;;;;6.25;5.00;;;;;11.24;73.68;99105.50;5058362;28;45715;-81
2022/12/08 08:20:38;;;;;;;;;45.00;37.00;;;;;11.30;73.88;99105.53;5057489;28;46035;-68
2022/12/08 08:23:03;;;;;;;;;32.25;29.00;;;;;11.12;74.34;99063.59;5061304;28;46214;-85
2022/12/08 08:25:29;;;;;;;;;41.25;35.25;;;;;11.38;73.55;99097.72;5053593;28;45333;-84
2022/12/08 08:27:54;;;;;;;;;24.25;20.75;;;;;11.45;73.47;99102.06;5058490;28;45440;-78
2022/12/08 08:30:20;;;;;;;;;39.75;33.25;;;;;11.50;73.80;99110.81;5058020;28;45715;-82
2022/12/08 08:32:46;;;;;;;;;37.25;31.50;;;;;11.55;74.30;99108.22;5057902;28;45211;-85
2022/12/08 08:35:12;;;;;;;;;38.75;29.75;;;;;11.55;73.65;99087.28;5058635;28;45370;-85
2022/12/08 08:37:38;;;;;;;;;24.00;22.75;;;;;11.64;73.39;99089.94;5058281;28;45408;-85
2022/12/08 08:40:04;;;;;;;;;21.75;19.75;;;;;11.70;73.58;99082.09;5057721;28;45739;-86
2022/12/08 08:42:29;;;;;;;;;28.75;24.75;;;;;11.73;73.32;99087.31;5058005;28;45349;-83
2022/12/08 08:44:55;;;;;;;;;27.25;23.00;;;;;11.80;73.31;99074.25;5057627;28;45415;-86
2022/12/08 08:47:20;;;;;;;;;20.50;17.75;;;;;11.84;73.13;99076.03;5057133;28;45570;-86
2022/12/08 08:49:46;;;;;;;;;34.50;31.00;;;;;11.87;72.93;99068.16;5056195;28;45929;-84
2022/12/08 08:52:11;;;;;;;;;27.75;26.25;;;;;11.94;72.60;99072.56;5056175;28;45474;-85
2022/12/08 08:54:37;;;;;;;;;31.00;26.00;;;;;12.01;72.59;99071.69;5056798;28;45436;-87
2022/12/08 08:57:03;;;;;;;;;52.25;41.50;;;;;12.03;72.32;99059.47;5054572;28;45438;-87
2022/12/08 08:59:28;;;;;;;;;48.50;36.00;;;;;12.01;72.04;99045.50;5057911;28;46192;-86
2022/12/08 09:01:54;;;;;;;;;41.50;35.00;;;;;12.18;72.28;99071.69;5057397;28;45308;-85
2022/12/08 09:04:21;;;;;;;;;12.00;11.00;;;;;12.15;72.21;99076.91;5057791;28;45410;-87
2022/12/08 09:06:47;;;;;;;;;11.75;9.50;;;;;12.21;72.06;99062.97;5058230;28;45452;-87
2022/12/08 09:09:13;;;;;;;;;15.75;12.75;;;;;12.26;71.66;99058.63;5057472;28;45553;-87
2022/12/08 09:11:39;;;;;;;;;12.75;12.00;;;;;12.30;71.58;99048.13;5057702;28;45459;-86
2022/12/08 09:14:05;;;;;;;;;8.75;8.25;;;;;12.28;71.53;99049.88;5057835;28;45587;-87
2022/12/08 09:16:30;;;;;;;;;4.00;3.00;;;;;12.24;71.75;99042.91;5058026;28;45598;-86
2022/12/08 09:18:56;;;;;;;;;5.00;5.00;;;;;12.42;68.91;99042.00;5060693;28;45526;-87
2022/12/08 09:21:25;;;;;;;;;9.00;8.00;;;;;12.46;69.81;99029.78;5058805;28;45431;-68
2022/12/08 09:23:53;;;;;;;;;7.25;7.00;;;;;12.69;69.48;99038.47;5058099;28;45594;-68
2022/12/08 09:26:22;;;;;;;;;6.00;4.33;;;;;12.79;67.64;99036.66;5057884;28;45430;-68
2022/12/08 09:28:51;;;;;;;;;4.00;3.67;;;;;12.90;67.34;99039.25;5057262;28;45446;-67
2022/12/08 09:31:19;;;;;;;;;6.50;5.75;;;;;12.93;66.96;99021.78;5057159;28;45397;-67
2022/12/08 09:33:44;;;;;;;;;4.33;4.33;;;;;13.02;67.08;99025.22;5056543;28;45445;-68
2022/12/08 09:36:10;;;;;;;;;11.75;8.00;;;;;13.09;66.95;99029.56;5057225;28;45457;-86
2022/12/08 09:38:37;;;;;;;;;5.00;5.00;;;;;13.16;65.82;99027.78;5058701;28;45828;-86
2022/12/08 09:41:15;;;;;;;;;7.75;7.75;;;;;13.21;66.20;99023.38;5057972;28;45450;-85
2022/12/08 09:44:06;;;;;;;;;5.67;5.67;;;;;13.24;66.04;99034.72;5057484;28;45493;-86
2022/12/08 09:46:34;;;;;;;;;4.67;4.33;;;;;13.31;65.52;99036.50;5057481;28;45293;-87
2022/12/08 09:49:02;;;;;;;;;3.00;3.00;;;;;13.38;64.54;99037.31;5057214;28;45282;-86
2022/12/08 09:51:36;;;;;;;;;4.67;4.00;;;;;13.44;64.42;99021.53;5057303;28;45573;-67
2022/12/08 09:54:06;;;;;;;;;7.33;5.33;;;;;13.49;64.05;99024.16;5056838;28;45259;-68
2022/12/08 09:56:35;;;;;;;;;4.00;3.00;;;;;13.55;63.76;99023.22;5057431;28;45498;-75
2022/12/08 09:59:21;;;;;;;;;3.00;2.33;;;;;13.57;64.33;99039.81;5056695;28;45293;-68
2022/12/08 10:01:46;;;;;;;;;3.33;3.33;;;;;13.59;63.50;99031.06;5056816;28;45518;-68
2022/12/08 10:04:23;;;;;;;;;3.00;3.00;;;;;13.59;63.59;99028.47;5056709;28;45470;-71
2022/12/08 10:06:58;;;;;;;;;6.75;6.50;;;;;13.48;63.71;99020.63;5055904;28;45421;-82
2022/12/08 10:10:12;;;;;;;;;2.00;2.00;;;;;13.62;63.91;99040.66;5057057;28;45595;-84
2022/12/08 10:13:02;;;;;;;;;5.33;4.67;;;;;13.64;64.05;99042.41;5056602;28;45467;-83
2022/12/08 10:15:27;;;;;;;;;16.50;14.25;;;;;13.63;64.30;99042.44;5056837;28;45274;-74
2022/12/08 10:17:55;;;;;;;;;12.00;11.50;;;;;13.62;64.09;99040.66;5057845;28;45211;-88
2022/12/08 10:20:24;;;;;;;;;8.00;7.00;;;;;13.64;64.58;99044.16;5056870;28;46117;-87
2022/12/08 10:23:03;;;;;;;;;3.00;2.67;;;;;13.59;64.74;99038.06;5056541;28;45254;-86
2022/12/08 10:25:47;;;;;;;;;9.33;9.33;;;;;13.66;65.08;99035.38;5056830;28;45388;-86
2022/12/08 10:28:13;;;;;;;;;12.00;10.75;;;;;13.67;64.96;99033.66;5057033;28;45614;-87
2022/12/08 10:30:39;;;;;;;;;18.00;17.00;;;;;13.68;64.48;99031.00;5056220;28;45551;-87
2022/12/08 10:33:15;;;;;;;;;9.00;7.75;;;;;13.70;64.86;99031.00;5056634;28;45520;-87
2022/12/08 10:35:49;;;;;;;;;11.50;11.00;;;;;13.28;64.95;98955.16;5056649;28;45473;-87
2022/12/08 10:38:22;;;;;;;;;10.25;10.00;;;;;13.75;65.51;99028.31;5056821;28;45487;-86
2022/12/08 10:40:51;;;;;;;;;11.25;11.25;;;;;13.72;66.63;99016.97;5056468;28;45525;-87
2022/12/08 10:43:23;;;;;;;;;16.00;14.50;;;;;13.76;66.82;99014.34;5056470;28;45358;-87
2022/12/08 10:45:50;;;;;;;;;13.00;12.25;;;;;13.48;67.23;98970.78;5058262;28;45282;-84
2022/12/08 10:48:23;;;;;;;;;12.00;11.75;;;;;13.73;67.62;99013.47;5060142;28;45227;-87
2022/12/08 10:50:51;;;;;;;;;17.50;17.50;;;;;13.73;67.21;99002.97;5059564;28;45412;-86
2022/12/08 10:53:25;;;;;;;;;14.00;12.75;;;;;13.70;68.39;99008.25;5059640;28;45636;-85
2022/12/08 10:56:04;;;;;;;;;15.25;13.50;;;;;13.66;69.90;98990.78;5059570;28;45301;-78
2022/12/08 10:58:34;;;;;;;;;7.00;6.00;;;;;13.60;71.53;99003.94;5059602;28;45417;-69
2022/12/08 11:01:18;;;;;;;;;12.00;12.00;;;;;13.53;71.81;98991.78;5059379;28;45392;-78
2022/12/08 11:03:58;;;;;;;;;9.75;8.50;;;;;13.57;71.97;98995.22;5059478;28;45397;-85
2022/12/08 11:06:31;;;;;;;;;11.00;10.25;;;;;13.56;72.32;98983.84;5059479;28;45461;-87
2022/12/08 11:09:00;;;;;;;;;11.50;10.75;;;;;13.41;71.99;98948.13;5060008;28;45484;-87
2022/12/08 11:11:43;;;;;;;;;12.75;10.50;;;;;13.59;72.25;98975.09;5059631;28;45469;-87
2022/12/08 11:14:21;;;;;;;;;18.00;16.75;;;;;13.57;72.88;98964.63;5058623;28;45443;-84
2022/12/08 11:16:48;;;;;;;;;16.00;15.00;;;;;13.42;74.57;98954.22;5058422;28;45362;-86
2022/12/08 11:19:18;;;;;;;;;14.50;14.50;;;;;13.47;73.76;98961.19;5059527;28;45452;-87
2022/12/08 11:21:45;;;;;;;;;9.75;9.75;;;;;13.28;74.00;98905.34;5059040;28;45308;-81
2022/12/08 11:24:13;;;;;;;;;15.50;15.50;;;;;13.45;74.29;98938.47;5059106;28;45364;-85
2022/12/08 11:26:50;;;;;;;;;7.00;7.00;;;;;13.41;74.56;98942.00;5059368;28;45433;-77
2022/12/08 11:29:16;;;;;;;;;5.00;5.00;;;;;13.45;74.49;98934.09;5060504;28;45276;-72
2022/12/08 11:32:24;;;;;;;;;5.00;4.00;;;;;13.52;74.48;98941.03;5058910;28;45919;-77
2022/12/08 11:35:03;;;;;;;;;8.00;5.00;;;;;13.53;74.27;98929.66;5057245;28;45541;-86
2022/12/08 11:37:41;;;;;;;;;6.00;6.00;;;;;13.56;74.10;98930.53;5058259;28;45487;-76